sensor_id;sensor_type;location;lat;lon;timestamp;P1;durP1;ratioP1;P2;durP2;ratioP2
5662;SDS011;2854;42.692;23.364;2022-09-09T00:03:26;6.50;;;5.90;;
5662;SDS011;2854;42.692;23.364;2022-09-09T00:08:31;7.10;;;5.80;;
5662;SDS011;2854;42.692;23.364;2022-09-09T00:10:59;5.47;;;4.90;;
5662;SDS011;2854;42.692;23.364;2022-09-09T00:21:05;6.93;;;5.80;;
5662;SDS011;2854;42.692;23.364;2022-09-09T00:23:38;6.77;;;6.10;;
5662;SDS011;2854;42.692;23.364;2022-09-09T00:28:45;6.83;;;6.13;;
5662;SDS011;2854;42.692;23.364;2022-09-09T00:31:13;6.87;;;6.07;;
5662;SDS011;2854;42.692;23.364;2022-09-09T00:33:39;8.60;;;5.93;;
5662;SDS011;2854;42.692;23.364;2022-09-09T00:36:07;7.07;;;6.37;;
5662;SDS011;2854;42.692;23.364;2022-09-09T00:38:35;9.53;;;6.17;;
5662;SDS011;2854;42.692;23.364;2022-09-09T00:43:37;7.70;;;6.70;;
5662;SDS011;2854;42.692;23.364;2022-09-09T00:54:07;6.63;;;5.90;;
5662;SDS011;2854;42.692;23.364;2022-09-09T00:56:42;6.83;;;6.07;;
5662;SDS011;2854;42.692;23.364;2022-09-09T00:59:26;17.30;;;7.10;;
5662;SDS011;2854;42.692;23.364;2022-09-09T01:01:53;8.00;;;6.37;;
5662;SDS011;2854;42.692;23.364;2022-09-09T01:04:21;6.87;;;5.90;;
5662;SDS011;2854;42.692;23.364;2022-09-09T01:06:50;6.33;;;5.73;;
5662;SDS011;2854;42.692;23.364;2022-09-09T01:09:32;7.53;;;5.80;;
5662;SDS011;2854;42.692;23.364;2022-09-09T01:12:23;5.70;;;5.13;;
5662;SDS011;2854;42.692;23.364;2022-09-09T01:14:49;7.27;;;5.50;;
5662;SDS011;2854;42.692;23.364;2022-09-09T01:24:50;5.80;;;4.93;;
5662;SDS011;2854;42.692;23.364;2022-09-09T01:27:19;5.50;;;5.00;;
5662;SDS011;2854;42.692;23.364;2022-09-09T01:29:45;6.90;;;5.90;;
5662;SDS011;2854;42.692;23.364;2022-09-09T01:34:55;9.53;;;6.03;;
5662;SDS011;2854;42.692;23.364;2022-09-09T01:37:20;6.60;;;6.00;;
5662;SDS011;2854;42.692;23.364;2022-09-09T01:39:45;7.63;;;6.00;;
5662;SDS011;2854;42.692;23.364;2022-09-09T01:42:12;6.07;;;5.47;;
5662;SDS011;2854;42.692;23.364;2022-09-09T01:44:38;6.00;;;5.40;;
5662;SDS011;2854;42.692;23.364;2022-09-09T01:47:03;6.53;;;5.20;;
5662;SDS011;2854;42.692;23.364;2022-09-09T01:49:29;7.10;;;6.13;;
5662;SDS011;2854;42.692;23.364;2022-09-09T01:51:55;6.77;;;6.03;;
5662;SDS011;2854;42.692;23.364;2022-09-09T01:54:22;5.70;;;5.20;;
5662;SDS011;2854;42.692;23.364;2022-09-09T01:56:53;6.47;;;5.87;;
5662;SDS011;2854;42.692;23.364;2022-09-09T02:01:58;6.50;;;5.90;;
5662;SDS011;2854;42.692;23.364;2022-09-09T02:06:50;7.20;;;5.83;;
5662;SDS011;2854;42.692;23.364;2022-09-09T02:09:17;6.80;;;5.50;;
5662;SDS011;2854;42.692;23.364;2022-09-09T02:11:44;6.70;;;6.10;;
5662;SDS011;2854;42.692;23.364;2022-09-09T02:14:13;7.17;;;6.27;;
5662;SDS011;2854;42.692;23.364;2022-09-09T02:16:44;6.23;;;5.63;;
5662;SDS011;2854;42.692;23.364;2022-09-09T02:21:50;6.40;;;5.80;;
5662;SDS011;2854;42.692;23.364;2022-09-09T02:24:17;6.37;;;5.77;;
5662;SDS011;2854;42.692;23.364;2022-09-09T02:26:42;6.30;;;5.70;;
5662;SDS011;2854;42.692;23.364;2022-09-09T02:29:11;5.83;;;5.27;;
5662;SDS011;2854;42.692;23.364;2022-09-09T02:31:38;6.57;;;5.77;;
5662;SDS011;2854;42.692;23.364;2022-09-09T02:34:04;7.27;;;6.53;;
5662;SDS011;2854;42.692;23.364;2022-09-09T02:36:31;6.33;;;5.77;;
5662;SDS011;2854;42.692;23.364;2022-09-09T02:38:58;6.27;;;5.70;;
5662;SDS011;2854;42.692;23.364;2022-09-09T02:41:43;6.27;;;5.70;;
5662;SDS011;2854;42.692;23.364;2022-09-09T02:44:09;6.80;;;6.17;;
5662;SDS011;2854;42.692;23.364;2022-09-09T02:49:23;8.17;;;6.50;;
5662;SDS011;2854;42.692;23.364;2022-09-09T02:54:35;9.57;;;6.20;;
5662;SDS011;2854;42.692;23.364;2022-09-09T02:57:21;8.73;;;6.20;;
5662;SDS011;2854;42.692;23.364;2022-09-09T02:59:47;7.97;;;7.23;;
5662;SDS011;2854;42.692;23.364;2022-09-09T03:02:13;7.57;;;6.73;;
5662;SDS011;2854;42.692;23.364;2022-09-09T03:04:39;7.50;;;6.40;;
5662;SDS011;2854;42.692;23.364;2022-09-09T03:07:04;10.77;;;7.90;;
5662;SDS011;2854;42.692;23.364;2022-09-09T03:09:30;9.43;;;7.63;;
5662;SDS011;2854;42.692;23.364;2022-09-09T03:11:55;8.00;;;7.20;;
5662;SDS011;2854;42.692;23.364;2022-09-09T03:14:21;8.20;;;7.07;;
5662;SDS011;2854;42.692;23.364;2022-09-09T03:16:49;9.20;;;7.73;;
5662;SDS011;2854;42.692;23.364;2022-09-09T03:19:15;10.27;;;7.90;;
5662;SDS011;2854;42.692;23.364;2022-09-09T03:21:40;32.50;;;7.70;;
5662;SDS011;2854;42.692;23.364;2022-09-09T03:24:05;8.73;;;7.60;;
5662;SDS011;2854;42.692;23.364;2022-09-09T03:26:31;10.00;;;7.80;;
5662;SDS011;2854;42.692;23.364;2022-09-09T03:28:56;10.70;;;8.57;;
5662;SDS011;2854;42.692;23.364;2022-09-09T03:31:22;11.07;;;7.70;;
5662;SDS011;2854;42.692;23.364;2022-09-09T03:33:47;11.10;;;7.57;;
5662;SDS011;2854;42.692;23.364;2022-09-09T03:36:13;10.67;;;7.90;;
5662;SDS011;2854;42.692;23.364;2022-09-09T03:38:39;9.37;;;7.73;;
5662;SDS011;2854;42.692;23.364;2022-09-09T03:41:04;9.40;;;7.70;;
5662;SDS011;2854;42.692;23.364;2022-09-09T03:43:32;8.20;;;7.40;;
5662;SDS011;2854;42.692;23.364;2022-09-09T03:45:58;8.60;;;7.50;;
5662;SDS011;2854;42.692;23.364;2022-09-09T03:48:23;12.30;;;8.20;;
5662;SDS011;2854;42.692;23.364;2022-09-09T03:50:50;8.93;;;7.10;;
5662;SDS011;2854;42.692;23.364;2022-09-09T03:53:16;11.80;;;7.97;;
5662;SDS011;2854;42.692;23.364;2022-09-09T03:55:45;9.23;;;8.03;;
5662;SDS011;2854;42.692;23.364;2022-09-09T03:58:10;9.67;;;7.57;;
5662;SDS011;2854;42.692;23.364;2022-09-09T04:00:36;10.10;;;7.87;;
5662;SDS011;2854;42.692;23.364;2022-09-09T04:03:01;8.60;;;7.33;;
5662;SDS011;2854;42.692;23.364;2022-09-09T04:05:27;9.63;;;7.50;;
5662;SDS011;2854;42.692;23.364;2022-09-09T04:07:52;8.10;;;7.20;;
5662;SDS011;2854;42.692;23.364;2022-09-09T04:10:17;11.20;;;7.73;;
5662;SDS011;2854;42.692;23.364;2022-09-09T04:12:43;10.30;;;8.23;;
5662;SDS011;2854;42.692;23.364;2022-09-09T04:15:09;9.73;;;8.17;;
5662;SDS011;2854;42.692;23.364;2022-09-09T04:17:35;10.53;;;8.40;;
5662;SDS011;2854;42.692;23.364;2022-09-09T04:20:01;10.10;;;8.20;;
5662;SDS011;2854;42.692;23.364;2022-09-09T04:22:26;9.87;;;7.67;;
5662;SDS011;2854;42.692;23.364;2022-09-09T04:24:52;11.83;;;8.10;;
5662;SDS011;2854;42.692;23.364;2022-09-09T04:27:17;19.30;;;7.70;;
5662;SDS011;2854;42.692;23.364;2022-09-09T04:29:42;10.97;;;7.93;;
5662;SDS011;2854;42.692;23.364;2022-09-09T04:32:07;9.87;;;7.97;;
5662;SDS011;2854;42.692;23.364;2022-09-09T04:34:33;10.93;;;8.37;;
5662;SDS011;2854;42.692;23.364;2022-09-09T04:36:58;8.40;;;7.30;;
5662;SDS011;2854;42.692;23.364;2022-09-09T04:39:24;10.67;;;8.30;;
5662;SDS011;2854;42.692;23.364;2022-09-09T04:41:51;7.80;;;6.47;;
5662;SDS011;2854;42.692;23.364;2022-09-09T04:44:16;9.53;;;7.20;;
5662;SDS011;2854;42.692;23.364;2022-09-09T04:46:41;8.03;;;6.90;;
5662;SDS011;2854;42.692;23.364;2022-09-09T04:49:07;9.13;;;7.20;;
5662;SDS011;2854;42.692;23.364;2022-09-09T04:51:32;7.27;;;6.67;;
5662;SDS011;2854;42.692;23.364;2022-09-09T04:53:57;11.53;;;7.23;;
5662;SDS011;2854;42.692;23.364;2022-09-09T04:56:22;13.50;;;8.40;;
5662;SDS011;2854;42.692;23.364;2022-09-09T04:58:48;10.33;;;7.13;;
5662;SDS011;2854;42.692;23.364;2022-09-09T05:01:14;8.97;;;8.00;;
5662;SDS011;2854;42.692;23.364;2022-09-09T05:03:40;8.27;;;7.47;;
5662;SDS011;2854;42.692;23.364;2022-09-09T05:06:06;15.33;;;8.23;;
5662;SDS011;2854;42.692;23.364;2022-09-09T05:08:33;12.53;;;8.53;;
5662;SDS011;2854;42.692;23.364;2022-09-09T05:10:58;13.10;;;8.10;;
5662;SDS011;2854;42.692;23.364;2022-09-09T05:13:25;8.40;;;7.60;;
5662;SDS011;2854;42.692;23.364;2022-09-09T05:15:51;13.50;;;7.53;;
5662;SDS011;2854;42.692;23.364;2022-09-09T05:18:18;8.57;;;7.67;;
5662;SDS011;2854;42.692;23.364;2022-09-09T05:20:44;9.20;;;8.07;;
5662;SDS011;2854;42.692;23.364;2022-09-09T05:23:09;8.13;;;7.30;;
5662;SDS011;2854;42.692;23.364;2022-09-09T05:25:37;8.53;;;7.63;;
5662;SDS011;2854;42.692;23.364;2022-09-09T05:28:02;9.77;;;8.30;;
5662;SDS011;2854;42.692;23.364;2022-09-09T05:30:28;15.60;;;7.90;;
5662;SDS011;2854;42.692;23.364;2022-09-09T05:32:55;8.13;;;7.33;;
5662;SDS011;2854;42.692;23.364;2022-09-09T05:35:20;9.33;;;7.80;;
5662;SDS011;2854;42.692;23.364;2022-09-09T05:37:46;11.20;;;7.70;;
5662;SDS011;2854;42.692;23.364;2022-09-09T05:40:11;9.17;;;8.20;;
5662;SDS011;2854;42.692;23.364;2022-09-09T05:42:37;9.20;;;7.07;;
5662;SDS011;2854;42.692;23.364;2022-09-09T05:45:04;8.80;;;7.30;;
5662;SDS011;2854;42.692;23.364;2022-09-09T05:47:29;7.60;;;6.90;;
5662;SDS011;2854;42.692;23.364;2022-09-09T05:49:54;7.10;;;6.40;;
5662;SDS011;2854;42.692;23.364;2022-09-09T05:52:20;7.70;;;6.60;;
5662;SDS011;2854;42.692;23.364;2022-09-09T05:54:45;6.23;;;5.70;;
5662;SDS011;2854;42.692;23.364;2022-09-09T05:57:10;7.60;;;6.03;;
5662;SDS011;2854;42.692;23.364;2022-09-09T05:59:36;6.60;;;5.47;;
5662;SDS011;2854;42.692;23.364;2022-09-09T06:02:01;5.60;;;5.10;;
5662;SDS011;2854;42.692;23.364;2022-09-09T06:04:26;6.20;;;5.60;;
5662;SDS011;2854;42.692;23.364;2022-09-09T06:06:52;6.20;;;5.70;;
5662;SDS011;2854;42.692;23.364;2022-09-09T06:09:17;10.30;;;6.00;;
5662;SDS011;2854;42.692;23.364;2022-09-09T06:11:43;7.80;;;6.07;;
5662;SDS011;2854;42.692;23.364;2022-09-09T06:14:08;5.80;;;5.20;;
5662;SDS011;2854;42.692;23.364;2022-09-09T06:16:34;5.90;;;5.30;;
5662;SDS011;2854;42.692;23.364;2022-09-09T06:19:00;5.53;;;5.13;;
5662;SDS011;2854;42.692;23.364;2022-09-09T06:21:29;5.50;;;4.87;;
5662;SDS011;2854;42.692;23.364;2022-09-09T06:23:55;5.13;;;4.73;;
5662;SDS011;2854;42.692;23.364;2022-09-09T06:26:21;5.57;;;5.07;;
5662;SDS011;2854;42.692;23.364;2022-09-09T06:28:47;5.63;;;5.00;;
5662;SDS011;2854;42.692;23.364;2022-09-09T06:31:15;4.90;;;4.50;;
5662;SDS011;2854;42.692;23.364;2022-09-09T06:33:42;4.70;;;4.30;;
5662;SDS011;2854;42.692;23.364;2022-09-09T06:36:12;5.97;;;5.30;;
5662;SDS011;2854;42.692;23.364;2022-09-09T06:38:37;4.73;;;4.37;;
5662;SDS011;2854;42.692;23.364;2022-09-09T06:41:03;5.30;;;4.80;;
5662;SDS011;2854;42.692;23.364;2022-09-09T06:43:28;6.03;;;4.70;;
5662;SDS011;2854;42.692;23.364;2022-09-09T06:48:19;4.97;;;4.60;;
5662;SDS011;2854;42.692;23.364;2022-09-09T06:50:44;6.40;;;4.60;;
5662;SDS011;2854;42.692;23.364;2022-09-09T06:53:09;4.80;;;4.50;;
5662;SDS011;2854;42.692;23.364;2022-09-09T06:55:35;5.33;;;4.83;;
5662;SDS011;2854;42.692;23.364;2022-09-09T06:58:00;6.83;;;4.73;;
5662;SDS011;2854;42.692;23.364;2022-09-09T07:00:26;6.50;;;5.03;;
5662;SDS011;2854;42.692;23.364;2022-09-09T07:02:51;3.97;;;3.77;;
5662;SDS011;2854;42.692;23.364;2022-09-09T07:05:17;6.13;;;4.63;;
5662;SDS011;2854;42.692;23.364;2022-09-09T07:07:42;5.37;;;4.97;;
5662;SDS011;2854;42.692;23.364;2022-09-09T07:10:08;5.37;;;4.87;;
5662;SDS011;2854;42.692;23.364;2022-09-09T07:12:33;7.57;;;4.30;;
5662;SDS011;2854;42.692;23.364;2022-09-09T07:14:58;5.00;;;4.50;;
5662;SDS011;2854;42.692;23.364;2022-09-09T07:17:23;4.70;;;4.30;;
5662;SDS011;2854;42.692;23.364;2022-09-09T07:19:49;5.00;;;4.60;;
5662;SDS011;2854;42.692;23.364;2022-09-09T07:22:14;4.60;;;4.20;;
5662;SDS011;2854;42.692;23.364;2022-09-09T07:24:39;4.37;;;3.97;;
5662;SDS011;2854;42.692;23.364;2022-09-09T07:27:05;6.80;;;4.67;;
5662;SDS011;2854;42.692;23.364;2022-09-09T07:29:30;4.00;;;3.60;;
5662;SDS011;2854;42.692;23.364;2022-09-09T07:31:55;4.37;;;4.00;;
5662;SDS011;2854;42.692;23.364;2022-09-09T07:34:21;4.17;;;3.60;;
5662;SDS011;2854;42.692;23.364;2022-09-09T07:36:47;4.20;;;3.80;;
5662;SDS011;2854;42.692;23.364;2022-09-09T07:39:14;4.00;;;3.77;;
5662;SDS011;2854;42.692;23.364;2022-09-09T07:44:05;4.30;;;3.90;;
5662;SDS011;2854;42.692;23.364;2022-09-09T07:46:31;4.40;;;4.10;;
5662;SDS011;2854;42.692;23.364;2022-09-09T07:48:56;4.63;;;4.23;;
5662;SDS011;2854;42.692;23.364;2022-09-09T07:51:25;4.20;;;3.87;;
5662;SDS011;2854;42.692;23.364;2022-09-09T07:53:52;4.10;;;3.77;;
5662;SDS011;2854;42.692;23.364;2022-09-09T07:56:18;4.90;;;4.50;;
5662;SDS011;2854;42.692;23.364;2022-09-09T07:58:46;4.47;;;4.10;;
5662;SDS011;2854;42.692;23.364;2022-09-09T08:01:16;4.73;;;4.37;;
5662;SDS011;2854;42.692;23.364;2022-09-09T08:03:43;4.93;;;4.53;;
5662;SDS011;2854;42.692;23.364;2022-09-09T08:06:09;4.83;;;4.53;;
5662;SDS011;2854;42.692;23.364;2022-09-09T08:08:35;6.90;;;3.97;;
5662;SDS011;2854;42.692;23.364;2022-09-09T08:11:07;4.27;;;3.90;;
5662;SDS011;2854;42.692;23.364;2022-09-09T08:13:33;3.73;;;3.53;;
5662;SDS011;2854;42.692;23.364;2022-09-09T08:16:06;4.77;;;4.30;;
5662;SDS011;2854;42.692;23.364;2022-09-09T08:18:32;4.93;;;4.17;;
5662;SDS011;2854;42.692;23.364;2022-09-09T08:20:57;4.20;;;3.90;;
5662;SDS011;2854;42.692;23.364;2022-09-09T08:23:22;3.93;;;3.73;;
5662;SDS011;2854;42.692;23.364;2022-09-09T08:25:47;3.87;;;3.67;;
5662;SDS011;2854;42.692;23.364;2022-09-09T08:28:13;4.73;;;4.33;;
5662;SDS011;2854;42.692;23.364;2022-09-09T08:30:39;4.20;;;3.90;;
5662;SDS011;2854;42.692;23.364;2022-09-09T08:33:04;4.50;;;4.10;;
5662;SDS011;2854;42.692;23.364;2022-09-09T08:35:30;4.43;;;4.03;;
5662;SDS011;2854;42.692;23.364;2022-09-09T08:37:57;4.43;;;4.03;;
5662;SDS011;2854;42.692;23.364;2022-09-09T08:40:24;4.70;;;4.30;;
5662;SDS011;2854;42.692;23.364;2022-09-09T08:42:52;4.80;;;4.47;;
5662;SDS011;2854;42.692;23.364;2022-09-09T08:45:20;4.63;;;4.23;;
5662;SDS011;2854;42.692;23.364;2022-09-09T08:55:19;4.50;;;4.10;;
5662;SDS011;2854;42.692;23.364;2022-09-09T08:57:46;5.27;;;4.43;;
5662;SDS011;2854;42.692;23.364;2022-09-09T09:00:12;3.93;;;3.73;;
5662;SDS011;2854;42.692;23.364;2022-09-09T09:08:12;4.20;;;4.00;;
5662;SDS011;2854;42.692;23.364;2022-09-09T09:13:59;5.10;;;4.70;;
5662;SDS011;2854;42.692;23.364;2022-09-09T09:16:00;4.03;;;3.70;;
5662;SDS011;2854;42.692;23.364;2022-09-09T09:18:27;4.17;;;3.83;;
5662;SDS011;2854;42.692;23.364;2022-09-09T09:23:24;4.13;;;3.53;;
5662;SDS011;2854;42.692;23.364;2022-09-09T09:25:52;4.40;;;4.10;;
5662;SDS011;2854;42.692;23.364;2022-09-09T09:28:23;4.30;;;4.00;;
5662;SDS011;2854;42.692;23.364;2022-09-09T09:33:21;4.07;;;3.70;;
5662;SDS011;2854;42.692;23.364;2022-09-09T09:35:51;4.37;;;4.07;;
5662;SDS011;2854;42.692;23.364;2022-09-09T09:38:22;3.80;;;3.57;;
5662;SDS011;2854;42.692;23.364;2022-09-09T09:40:52;7.37;;;4.60;;
5662;SDS011;2854;42.692;23.364;2022-09-09T09:45:51;4.80;;;4.40;;
5662;SDS011;2854;42.692;23.364;2022-09-09T09:48:16;4.43;;;4.13;;
5662;SDS011;2854;42.692;23.364;2022-09-09T09:50:58;4.40;;;4.10;;
5662;SDS011;2854;42.692;23.364;2022-09-09T09:58:18;4.07;;;3.87;;
5662;SDS011;2854;42.692;23.364;2022-09-09T10:00:47;10.20;;;3.90;;
5662;SDS011;2854;42.692;23.364;2022-09-09T10:03:24;4.90;;;4.50;;
5662;SDS011;2854;42.692;23.364;2022-09-09T10:05:50;4.20;;;3.90;;
5662;SDS011;2854;42.692;23.364;2022-09-09T10:08:15;4.00;;;3.63;;
5662;SDS011;2854;42.692;23.364;2022-09-09T10:13:27;4.40;;;4.10;;
5662;SDS011;2854;42.692;23.364;2022-09-09T10:18:54;4.23;;;3.93;;
5662;SDS011;2854;42.692;23.364;2022-09-09T10:26:12;4.30;;;4.00;;
5662;SDS011;2854;42.692;23.364;2022-09-09T10:31:36;6.10;;;4.33;;
5662;SDS011;2854;42.692;23.364;2022-09-09T10:36:56;4.70;;;4.30;;
5662;SDS011;2854;42.692;23.364;2022-09-09T10:49:48;7.07;;;4.93;;
5662;SDS011;2854;42.692;23.364;2022-09-09T10:59:46;4.97;;;4.53;;
5662;SDS011;2854;42.692;23.364;2022-09-09T11:02:34;6.53;;;5.70;;
5662;SDS011;2854;42.692;23.364;2022-09-09T11:05:03;10.50;;;4.93;;
5662;SDS011;2854;42.692;23.364;2022-09-09T11:07:41;5.37;;;4.87;;
5662;SDS011;2854;42.692;23.364;2022-09-09T11:10:24;6.03;;;5.53;;
5662;SDS011;2854;42.692;23.364;2022-09-09T11:12:53;5.63;;;5.13;;
5662;SDS011;2854;42.692;23.364;2022-09-09T11:15:21;5.63;;;5.20;;
5662;SDS011;2854;42.692;23.364;2022-09-09T11:17:56;6.13;;;5.43;;
5662;SDS011;2854;42.692;23.364;2022-09-09T11:20:22;6.03;;;5.53;;
5662;SDS011;2854;42.692;23.364;2022-09-09T11:22:55;6.00;;;5.50;;
5662;SDS011;2854;42.692;23.364;2022-09-09T11:25:37;5.83;;;5.33;;
5662;SDS011;2854;42.692;23.364;2022-09-09T11:38:16;5.97;;;5.37;;
5662;SDS011;2854;42.692;23.364;2022-09-09T11:40:43;5.70;;;5.30;;
5662;SDS011;2854;42.692;23.364;2022-09-09T11:43:11;5.90;;;5.40;;
5662;SDS011;2854;42.692;23.364;2022-09-09T11:45:38;6.33;;;5.70;;
5662;SDS011;2854;42.692;23.364;2022-09-09T11:48:04;7.83;;;6.00;;
5662;SDS011;2854;42.692;23.364;2022-09-09T11:50:34;20.13;;;13.23;;
5662;SDS011;2854;42.692;23.364;2022-09-09T11:53:05;6.93;;;6.33;;
5662;SDS011;2854;42.692;23.364;2022-09-09T11:55:33;6.27;;;5.40;;
5662;SDS011;2854;42.692;23.364;2022-09-09T11:57:59;6.93;;;5.70;;
5662;SDS011;2854;42.692;23.364;2022-09-09T12:00:30;8.80;;;6.27;;
5662;SDS011;2854;42.692;23.364;2022-09-09T12:02:59;6.53;;;5.80;;
5662;SDS011;2854;42.692;23.364;2022-09-09T12:05:24;8.93;;;6.07;;
5662;SDS011;2854;42.692;23.364;2022-09-09T12:08:00;5.93;;;5.53;;
5662;SDS011;2854;42.692;23.364;2022-09-09T12:10:32;6.20;;;5.60;;
5662;SDS011;2854;42.692;23.364;2022-09-09T12:13:08;6.30;;;5.50;;
5662;SDS011;2854;42.692;23.364;2022-09-09T12:15:36;8.07;;;5.37;;
5662;SDS011;2854;42.692;23.364;2022-09-09T12:18:14;6.50;;;5.40;;
5662;SDS011;2854;42.692;23.364;2022-09-09T12:20:40;5.73;;;5.20;;
5662;SDS011;2854;42.692;23.364;2022-09-09T12:23:24;9.53;;;5.70;;
5662;SDS011;2854;42.692;23.364;2022-09-09T12:33:45;6.10;;;5.50;;
5662;SDS011;2854;42.692;23.364;2022-09-09T12:36:13;6.73;;;5.47;;
5662;SDS011;2854;42.692;23.364;2022-09-09T12:38:40;12.93;;;5.50;;
5662;SDS011;2854;42.692;23.364;2022-09-09T12:41:06;5.57;;;5.17;;
5662;SDS011;2854;42.692;23.364;2022-09-09T12:43:31;6.80;;;6.00;;
5662;SDS011;2854;42.692;23.364;2022-09-09T12:46:03;8.10;;;6.13;;
5662;SDS011;2854;42.692;23.364;2022-09-09T12:48:35;6.93;;;6.17;;
5662;SDS011;2854;42.692;23.364;2022-09-09T12:51:01;6.53;;;5.63;;
5662;SDS011;2854;42.692;23.364;2022-09-09T12:53:31;7.10;;;6.40;;
5662;SDS011;2854;42.692;23.364;2022-09-09T12:55:59;5.97;;;5.47;;
5662;SDS011;2854;42.692;23.364;2022-09-09T12:58:26;7.27;;;6.57;;
5662;SDS011;2854;42.692;23.364;2022-09-09T13:00:54;8.13;;;6.13;;
5662;SDS011;2854;42.692;23.364;2022-09-09T13:03:23;6.43;;;5.83;;
5662;SDS011;2854;42.692;23.364;2022-09-09T13:05:49;7.87;;;6.83;;
5662;SDS011;2854;42.692;23.364;2022-09-09T13:08:14;6.97;;;6.10;;
5662;SDS011;2854;42.692;23.364;2022-09-09T13:10:44;5.73;;;5.33;;
5662;SDS011;2854;42.692;23.364;2022-09-09T13:13:15;7.27;;;6.40;;
5662;SDS011;2854;42.692;23.364;2022-09-09T13:15:47;6.57;;;6.07;;
5662;SDS011;2854;42.692;23.364;2022-09-09T13:18:13;11.43;;;6.20;;
5662;SDS011;2854;42.692;23.364;2022-09-09T13:20:39;6.67;;;5.97;;
5662;SDS011;2854;42.692;23.364;2022-09-09T13:23:11;6.83;;;5.23;;
5662;SDS011;2854;42.692;23.364;2022-09-09T13:25:38;7.87;;;5.33;;
5662;SDS011;2854;42.692;23.364;2022-09-09T13:28:04;7.07;;;6.27;;
5662;SDS011;2854;42.692;23.364;2022-09-09T13:30:34;7.10;;;6.37;;
5662;SDS011;2854;42.692;23.364;2022-09-09T13:38:15;7.20;;;5.83;;
5662;SDS011;2854;42.692;23.364;2022-09-09T13:40:40;7.30;;;6.60;;
5662;SDS011;2854;42.692;23.364;2022-09-09T13:43:05;6.93;;;6.20;;
5662;SDS011;2854;42.692;23.364;2022-09-09T13:45:40;6.53;;;6.00;;
5662;SDS011;2854;42.692;23.364;2022-09-09T13:48:09;6.20;;;5.60;;
5662;SDS011;2854;42.692;23.364;2022-09-09T13:50:35;6.47;;;5.93;;
5662;SDS011;2854;42.692;23.364;2022-09-09T13:53:00;6.70;;;6.10;;
5662;SDS011;2854;42.692;23.364;2022-09-09T13:55:26;7.23;;;6.60;;
5662;SDS011;2854;42.692;23.364;2022-09-09T13:57:53;7.87;;;6.70;;
5662;SDS011;2854;42.692;23.364;2022-09-09T14:00:18;11.00;;;5.67;;
5662;SDS011;2854;42.692;23.364;2022-09-09T14:02:43;6.87;;;5.97;;
5662;SDS011;2854;42.692;23.364;2022-09-09T14:05:09;7.97;;;6.43;;
5662;SDS011;2854;42.692;23.364;2022-09-09T14:07:34;6.30;;;5.70;;
5662;SDS011;2854;42.692;23.364;2022-09-09T14:10:00;7.43;;;6.57;;
5662;SDS011;2854;42.692;23.364;2022-09-09T14:12:25;6.13;;;5.57;;
5662;SDS011;2854;42.692;23.364;2022-09-09T14:14:50;6.60;;;5.57;;
5662;SDS011;2854;42.692;23.364;2022-09-09T14:17:15;7.03;;;6.43;;
5662;SDS011;2854;42.692;23.364;2022-09-09T14:19:41;5.73;;;5.10;;
5662;SDS011;2854;42.692;23.364;2022-09-09T14:22:07;8.00;;;5.10;;
5662;SDS011;2854;42.692;23.364;2022-09-09T14:24:32;6.13;;;4.90;;
5662;SDS011;2854;42.692;23.364;2022-09-09T14:26:58;6.10;;;5.60;;
5662;SDS011;2854;42.692;23.364;2022-09-09T14:29:23;6.80;;;6.10;;
5662;SDS011;2854;42.692;23.364;2022-09-09T14:31:50;8.30;;;5.03;;
5662;SDS011;2854;42.692;23.364;2022-09-09T14:34:15;6.57;;;5.43;;
5662;SDS011;2854;42.692;23.364;2022-09-09T14:36:41;6.23;;;5.40;;
5662;SDS011;2854;42.692;23.364;2022-09-09T14:39:06;5.90;;;5.40;;
5662;SDS011;2854;42.692;23.364;2022-09-09T14:41:31;5.83;;;5.33;;
5662;SDS011;2854;42.692;23.364;2022-09-09T14:43:57;6.53;;;5.00;;
5662;SDS011;2854;42.692;23.364;2022-09-09T14:46:22;9.47;;;5.57;;
5662;SDS011;2854;42.692;23.364;2022-09-09T14:48:48;6.57;;;5.00;;
5662;SDS011;2854;42.692;23.364;2022-09-09T14:51:20;6.23;;;4.90;;
5662;SDS011;2854;42.692;23.364;2022-09-09T14:53:47;5.13;;;4.73;;
5662;SDS011;2854;42.692;23.364;2022-09-09T14:56:14;7.13;;;5.43;;
5662;SDS011;2854;42.692;23.364;2022-09-09T14:58:39;5.00;;;4.30;;
5662;SDS011;2854;42.692;23.364;2022-09-09T15:01:05;5.60;;;4.70;;
5662;SDS011;2854;42.692;23.364;2022-09-09T15:03:31;5.90;;;4.67;;
5662;SDS011;2854;42.692;23.364;2022-09-09T15:05:57;7.47;;;5.47;;
5662;SDS011;2854;42.692;23.364;2022-09-09T15:08:23;5.13;;;4.73;;
5662;SDS011;2854;42.692;23.364;2022-09-09T15:10:49;5.80;;;5.13;;
5662;SDS011;2854;42.692;23.364;2022-09-09T15:13:15;5.60;;;5.10;;
5662;SDS011;2854;42.692;23.364;2022-09-09T15:15:42;6.87;;;5.60;;
5662;SDS011;2854;42.692;23.364;2022-09-09T15:18:07;5.73;;;5.07;;
5662;SDS011;2854;42.692;23.364;2022-09-09T15:20:32;16.00;;;5.67;;
5662;SDS011;2854;42.692;23.364;2022-09-09T15:22:58;5.00;;;4.60;;
5662;SDS011;2854;42.692;23.364;2022-09-09T15:25:23;7.70;;;5.33;;
5662;SDS011;2854;42.692;23.364;2022-09-09T15:27:48;4.93;;;4.60;;
5662;SDS011;2854;42.692;23.364;2022-09-09T15:30:14;7.97;;;5.43;;
5662;SDS011;2854;42.692;23.364;2022-09-09T15:32:40;4.80;;;4.40;;
5662;SDS011;2854;42.692;23.364;2022-09-09T15:35:05;7.00;;;5.00;;
5662;SDS011;2854;42.692;23.364;2022-09-09T15:37:31;7.53;;;4.10;;
5662;SDS011;2854;42.692;23.364;2022-09-09T15:39:56;5.40;;;4.90;;
5662;SDS011;2854;42.692;23.364;2022-09-09T15:42:23;5.07;;;4.67;;
5662;SDS011;2854;42.692;23.364;2022-09-09T15:44:50;5.60;;;5.13;;
5662;SDS011;2854;42.692;23.364;2022-09-09T15:47:15;4.50;;;4.20;;
5662;SDS011;2854;42.692;23.364;2022-09-09T15:49:41;5.20;;;4.80;;
5662;SDS011;2854;42.692;23.364;2022-09-09T15:52:06;6.23;;;4.60;;
5662;SDS011;2854;42.692;23.364;2022-09-09T15:54:32;4.97;;;4.47;;
5662;SDS011;2854;42.692;23.364;2022-09-09T15:56:59;9.50;;;5.00;;
5662;SDS011;2854;42.692;23.364;2022-09-09T15:59:25;5.53;;;4.70;;
5662;SDS011;2854;42.692;23.364;2022-09-09T16:01:51;4.87;;;4.47;;
5662;SDS011;2854;42.692;23.364;2022-09-09T16:04:17;9.90;;;6.63;;
5662;SDS011;2854;42.692;23.364;2022-09-09T16:06:48;5.50;;;4.93;;
5662;SDS011;2854;42.692;23.364;2022-09-09T16:09:13;7.93;;;4.90;;
5662;SDS011;2854;42.692;23.364;2022-09-09T16:11:39;5.73;;;5.13;;
5662;SDS011;2854;42.692;23.364;2022-09-09T16:14:04;8.97;;;4.60;;
5662;SDS011;2854;42.692;23.364;2022-09-09T16:16:31;4.87;;;4.50;;
5662;SDS011;2854;42.692;23.364;2022-09-09T16:18:57;6.57;;;4.80;;
5662;SDS011;2854;42.692;23.364;2022-09-09T16:21:24;4.40;;;3.97;;
5662;SDS011;2854;42.692;23.364;2022-09-09T16:23:52;5.20;;;4.70;;
5662;SDS011;2854;42.692;23.364;2022-09-09T16:26:21;5.07;;;4.67;;
5662;SDS011;2854;42.692;23.364;2022-09-09T16:28:47;6.13;;;5.10;;
5662;SDS011;2854;42.692;23.364;2022-09-09T16:31:13;9.50;;;4.83;;
5662;SDS011;2854;42.692;23.364;2022-09-09T16:33:39;7.90;;;5.00;;
5662;SDS011;2854;42.692;23.364;2022-09-09T16:36:06;9.50;;;5.63;;
5662;SDS011;2854;42.692;23.364;2022-09-09T16:38:32;5.63;;;4.90;;
5662;SDS011;2854;42.692;23.364;2022-09-09T16:40:58;5.57;;;5.10;;
5662;SDS011;2854;42.692;23.364;2022-09-09T16:43:24;7.73;;;5.40;;
5662;SDS011;2854;42.692;23.364;2022-09-09T16:45:49;5.03;;;4.50;;
5662;SDS011;2854;42.692;23.364;2022-09-09T16:48:15;8.27;;;4.93;;
5662;SDS011;2854;42.692;23.364;2022-09-09T16:50:40;6.07;;;5.47;;
5662;SDS011;2854;42.692;23.364;2022-09-09T16:53:05;9.60;;;5.40;;
5662;SDS011;2854;42.692;23.364;2022-09-09T16:55:36;8.00;;;5.33;;
5662;SDS011;2854;42.692;23.364;2022-09-09T16:58:02;9.00;;;5.07;;
5662;SDS011;2854;42.692;23.364;2022-09-09T17:00:27;7.30;;;5.43;;
5662;SDS011;2854;42.692;23.364;2022-09-09T17:02:53;8.13;;;5.40;;
5662;SDS011;2854;42.692;23.364;2022-09-09T17:05:18;8.70;;;6.37;;
5662;SDS011;2854;42.692;23.364;2022-09-09T17:07:43;11.03;;;5.70;;
5662;SDS011;2854;42.692;23.364;2022-09-09T17:10:09;8.23;;;5.60;;
5662;SDS011;2854;42.692;23.364;2022-09-09T17:12:34;6.53;;;5.87;;
5662;SDS011;2854;42.692;23.364;2022-09-09T17:15:00;6.47;;;5.83;;
5662;SDS011;2854;42.692;23.364;2022-09-09T17:17:28;11.93;;;5.63;;
5662;SDS011;2854;42.692;23.364;2022-09-09T17:19:53;6.60;;;4.93;;